createdAt,value
2018-05-06T00:00:27.319Z,91.5
2018-05-06T00:01:28.052Z,90.9
2018-05-06T00:02:29.231Z,91.2
2018-05-06T00:03:29.948Z,90.9
2018-05-06T00:04:30.680Z,91.5
2018-05-06T00:05:31.401Z,91.1
2018-05-06T00:06:32.274Z,91.0
2018-05-06T00:07:32.990Z,91.2
2018-05-06T00:08:33.711Z,90.4
2018-05-06T00:09:34.428Z,91.1
2018-05-06T00:10:35.149Z,91.3
2018-05-06T00:11:35.872Z,91.1
2018-05-06T00:12:36.587Z,91.4
2018-05-06T00:13:37.298Z,91.0
2018-05-06T00:14:38.021Z,91.3
2018-05-06T00:15:38.743Z,91.3
2018-05-06T00:16:39.544Z,91.3
2018-05-06T00:17:40.409Z,91.6
2018-05-06T00:18:41.122Z,91.6
2018-05-06T00:19:42.083Z,91.0
2018-05-06T00:20:43.158Z,90.9
2018-05-06T00:21:43.988Z,91.1
2018-05-06T00:22:44.752Z,91.2
2018-05-06T00:23:45.459Z,91.4
2018-05-06T00:24:46.179Z,91.6
2018-05-06T00:25:46.897Z,91.3
2018-05-06T00:26:47.615Z,91.3
2018-05-06T00:27:48.328Z,91.2
2018-05-06T00:28:49.041Z,91.2
2018-05-06T00:29:49.760Z,91.6
2018-05-06T00:30:50.467Z,91.9
2018-05-06T00:31:51.175Z,92.1
2018-05-06T00:32:51.888Z,91.9
2018-05-06T00:33:52.658Z,92.0
2018-05-06T00:34:53.369Z,91.9
2018-05-06T00:35:54.386Z,92.3
2018-05-06T00:36:55.101Z,92.2
2018-05-06T00:37:55.822Z,92.3
2018-05-06T00:38:56.547Z,92.0
2018-05-06T00:39:57.515Z,92.2
2018-05-06T00:40:58.222Z,92.2
2018-05-06T00:41:59.280Z,92.3
2018-05-06T00:43:00.013Z,92.0
2018-05-06T00:44:00.729Z,91.7
2018-05-06T00:45:01.450Z,91.9
2018-05-06T00:46:02.158Z,91.9
2018-05-06T00:47:02.877Z,92.0
2018-05-06T00:48:03.586Z,91.8
2018-05-06T00:49:04.309Z,91.9
2018-05-06T00:50:05.025Z,91.8
2018-05-06T00:51:05.996Z,92.4
2018-05-06T00:52:06.711Z,92.1
2018-05-06T00:53:07.726Z,92.0
2018-05-06T00:54:08.441Z,92.1
2018-05-06T00:55:09.177Z,91.8
2018-05-06T00:56:09.884Z,91.7
2018-05-06T00:57:10.604Z,91.7
2018-05-06T00:58:11.366Z,92.6
2018-05-06T00:59:12.080Z,92.0
2018-05-06T01:00:12.794Z,92.3
2018-05-06T01:01:13.987Z,91.9
2018-05-06T01:02:14.696Z,92.2
2018-05-06T01:03:15.408Z,92.0
2018-05-06T01:04:16.544Z,92.0
2018-05-06T01:05:17.254Z,92.1
2018-05-06T01:06:17.966Z,92.4
2018-05-06T01:07:18.681Z,92.2
2018-05-06T01:08:19.397Z,91.9
2018-05-06T01:09:20.154Z,91.8
2018-05-06T01:10:20.877Z,91.8
2018-05-06T01:11:21.844Z,91.8
2018-05-06T01:12:22.805Z,91.8
2018-05-06T01:13:23.515Z,91.8
2018-05-06T01:14:24.501Z,91.6
2018-05-06T01:15:25.231Z,91.8
2018-05-06T01:16:25.949Z,92.4
2018-05-06T01:17:26.677Z,92.3
2018-05-06T01:18:27.387Z,93.1
2018-05-06T01:19:28.516Z,92.3
2018-05-06T01:20:29.232Z,92.3
2018-05-06T01:21:29.947Z,92.5
2018-05-06T01:22:30.663Z,92.2
2018-05-06T01:23:31.373Z,92.0
2018-05-06T01:24:32.144Z,91.8
2018-05-06T01:25:32.852Z,92.0
2018-05-06T01:26:33.626Z,92.2
2018-05-06T01:27:34.363Z,92.1
2018-05-06T01:28:35.067Z,91.8
2018-05-06T01:29:35.827Z,91.7
2018-05-06T01:30:36.547Z,92.5
2018-05-06T01:31:37.257Z,92.5
2018-05-06T01:32:37.978Z,92.3
2018-05-06T01:33:38.680Z,92.9
2018-05-06T01:34:39.392Z,93.2
2018-05-06T01:35:40.116Z,92.3
2018-05-06T01:36:40.826Z,92.3
2018-05-06T01:37:41.535Z,92.0
2018-05-06T01:38:42.244Z,92.5
2018-05-06T01:39:42.953Z,92.4
2018-05-06T01:40:43.664Z,92.7
2018-05-06T01:41:44.430Z,92.5
2018-05-06T01:42:45.137Z,92.4
2018-05-06T01:43:45.857Z,92.9
2018-05-06T01:44:46.569Z,92.7
2018-05-06T01:45:47.288Z,93.0
2018-05-06T01:46:48.151Z,93.1
2018-05-06T01:47:48.861Z,92.4
2018-05-06T01:48:49.576Z,93.0
2018-05-06T01:49:50.292Z,92.5
2018-05-06T01:50:51.055Z,92.6
2018-05-06T01:51:51.810Z,92.1
2018-05-06T01:52:52.520Z,91.9
2018-05-06T01:53:53.237Z,91.8
2018-05-06T01:54:53.952Z,92.3
2018-05-06T01:55:54.674Z,91.9
2018-05-06T01:56:55.377Z,93.3
2018-05-06T01:57:56.086Z,93.2
2018-05-06T01:58:56.818Z,93.4
2018-05-06T01:59:57.593Z,92.9
2018-05-06T02:00:58.297Z,93.3
2018-05-06T02:01:59.015Z,92.8
2018-05-06T02:02:59.992Z,92.8
2018-05-06T02:04:00.693Z,93.2
2018-05-06T02:05:01.448Z,92.6
2018-05-06T02:06:02.174Z,92.7
2018-05-06T02:07:02.885Z,93.1
2018-05-06T02:08:03.628Z,92.7
2018-05-06T02:09:04.362Z,93.0
2018-05-06T02:10:05.078Z,92.8
2018-05-06T02:11:05.792Z,93.5
2018-05-06T02:12:06.513Z,92.8
2018-05-06T02:13:07.220Z,93.1
2018-05-06T02:14:07.922Z,93.3
2018-05-06T02:15:08.652Z,93.4
2018-05-06T02:16:09.365Z,93.4
2018-05-06T02:17:10.086Z,93.1
2018-05-06T02:18:10.799Z,93.4
2018-05-06T02:19:11.506Z,93.2
2018-05-06T02:20:12.224Z,93.7
2018-05-06T02:21:12.937Z,93.8
2018-05-06T02:22:13.650Z,94.0
2018-05-06T02:23:14.423Z,93.8
2018-05-06T02:24:15.141Z,94.1
2018-05-06T02:25:15.850Z,93.7
2018-05-06T02:26:16.575Z,94.0
2018-05-06T02:27:17.274Z,93.8
2018-05-06T02:28:18.102Z,93.7
2018-05-06T02:29:18.813Z,93.9
2018-05-06T02:30:19.544Z,93.9
2018-05-06T02:31:20.272Z,94.0
2018-05-06T02:32:20.986Z,93.9
2018-05-06T02:33:21.704Z,93.9
2018-05-06T02:34:22.410Z,94.1
2018-05-06T02:35:23.116Z,93.8
2018-05-06T02:36:23.843Z,94.0
2018-05-06T02:37:24.570Z,93.8
2018-05-06T02:38:25.282Z,93.9
2018-05-06T02:39:25.999Z,93.8
2018-05-06T02:40:26.829Z,94.1
2018-05-06T02:41:27.546Z,93.8
2018-05-06T02:42:28.252Z,93.9
2018-05-06T02:43:28.972Z,94.0
2018-05-06T02:44:29.675Z,94.1
2018-05-06T02:45:30.389Z,93.6
2018-05-06T02:46:31.117Z,93.9
2018-05-06T02:47:31.826Z,93.9
2018-05-06T02:48:32.533Z,93.7
2018-05-06T02:49:33.260Z,94.1
2018-05-06T02:50:33.959Z,94.2
2018-05-06T02:51:34.661Z,94.3
2018-05-06T02:52:35.372Z,94.3
2018-05-06T02:53:36.077Z,93.8
2018-05-06T02:54:36.791Z,94.1
2018-05-06T02:55:37.550Z,94.0
2018-05-06T02:56:38.268Z,94.1
2018-05-06T02:57:38.983Z,94.0
2018-05-06T02:58:39.692Z,94.2
2018-05-06T02:59:40.407Z,94.1
2018-05-06T03:00:41.363Z,94.2
2018-05-06T03:01:42.110Z,94.4
2018-05-06T03:02:42.810Z,94.3
2018-05-06T03:03:43.536Z,94.6
2018-05-06T03:04:44.240Z,93.4
2018-05-06T03:05:44.943Z,93.5
2018-05-06T03:06:45.669Z,93.7
2018-05-06T03:07:46.374Z,93.1
2018-05-06T03:08:47.106Z,93.9
2018-05-06T03:09:47.811Z,94.3
2018-05-06T03:10:48.549Z,94.2
2018-05-06T03:11:49.272Z,93.4
2018-05-06T03:12:49.988Z,93.8
2018-05-06T03:13:50.711Z,93.1
2018-05-06T03:14:51.422Z,94.3
2018-05-06T03:15:52.129Z,93.9
2018-05-06T03:16:52.834Z,94.2
2018-05-06T03:17:53.548Z,93.8
2018-05-06T03:18:54.255Z,93.6
2018-05-06T03:19:54.968Z,93.6
2018-05-06T03:20:55.683Z,93.6
2018-05-06T03:21:56.392Z,93.8
2018-05-06T03:22:57.099Z,94.0
2018-05-06T03:23:57.806Z,93.7
2018-05-06T03:24:58.532Z,93.8
2018-05-06T03:25:59.242Z,93.6
2018-05-06T03:27:00.013Z,93.7
2018-05-06T03:28:00.725Z,94.0
2018-05-06T03:29:01.444Z,93.9
2018-05-06T03:30:02.159Z,94.0
2018-05-06T03:31:02.862Z,94.1
2018-05-06T03:32:03.628Z,93.8
2018-05-06T03:33:04.332Z,94.2
2018-05-06T03:34:05.070Z,94.4
2018-05-06T03:35:05.780Z,94.5
2018-05-06T03:36:06.508Z,94.5
2018-05-06T03:37:07.268Z,94.5
2018-05-06T03:38:07.986Z,94.4
2018-05-06T03:39:08.706Z,94.6
2018-05-06T03:40:09.419Z,94.6
2018-05-06T03:41:10.137Z,94.4
2018-05-06T03:42:10.848Z,94.2
2018-05-06T03:43:11.581Z,94.3
2018-05-06T03:44:12.285Z,94.5
2018-05-06T03:45:13.007Z,94.7
2018-05-06T03:46:13.724Z,93.9
2018-05-06T03:47:14.439Z,94.7
2018-05-06T03:48:15.148Z,94.2
2018-05-06T03:49:15.868Z,93.8
2018-05-06T03:50:16.581Z,94.2
2018-05-06T03:51:17.460Z,94.2
2018-05-06T03:52:18.182Z,94.2
2018-05-06T03:53:19.153Z,94.3
2018-05-06T03:54:19.859Z,93.8
2018-05-06T03:55:20.832Z,94.5
2018-05-06T03:56:21.600Z,94.5
2018-05-06T03:57:22.315Z,94.6
2018-05-06T03:58:23.041Z,94.5
2018-05-06T03:59:23.749Z,95.1
2018-05-06T04:00:24.519Z,94.9
2018-05-06T04:01:25.238Z,94.9
2018-05-06T04:02:25.949Z,95.2
2018-05-06T04:03:26.670Z,95.3
2018-05-06T04:04:27.373Z,94.7
2018-05-06T04:05:28.104Z,95.0
2018-05-06T04:06:28.820Z,94.9
2018-05-06T04:07:29.549Z,95.2
2018-05-06T04:08:30.273Z,95.3
2018-05-06T04:09:30.989Z,95.2
2018-05-06T04:10:31.706Z,95.4
2018-05-06T04:11:32.422Z,95.0
2018-05-06T04:12:33.232Z,95.2
2018-05-06T04:13:33.955Z,95.1
2018-05-06T04:14:34.658Z,95.2
2018-05-06T04:15:35.630Z,95.2
2018-05-06T04:16:36.339Z,95.4
2018-05-06T04:17:37.340Z,95.3
2018-05-06T04:18:38.059Z,94.7
2018-05-06T04:19:38.772Z,94.8
2018-05-06T04:20:39.479Z,95.2
2018-05-06T04:21:40.197Z,94.5
2018-05-06T04:22:41.183Z,95.2
2018-05-06T04:23:41.870Z,95.1
2018-05-06T04:24:42.992Z,95.1
2018-05-06T04:25:43.710Z,95.4
2018-05-06T04:26:44.468Z,95.0
2018-05-06T04:27:45.161Z,94.7
2018-05-06T04:28:45.881Z,95.2
2018-05-06T04:29:46.697Z,95.2
2018-05-06T04:30:47.421Z,94.7
2018-05-06T04:31:48.377Z,95.0
2018-05-06T04:32:49.092Z,95.2
2018-05-06T04:33:49.812Z,95.4
2018-05-06T04:34:50.532Z,95.1
2018-05-06T04:35:51.692Z,95.3
2018-05-06T04:36:52.409Z,94.5
2018-05-06T04:37:53.120Z,94.9
2018-05-06T04:38:53.837Z,94.9
2018-05-06T04:39:54.560Z,94.7
2018-05-06T04:40:55.287Z,94.5
2018-05-06T04:41:55.999Z,95.1
2018-05-06T04:42:56.722Z,94.4
2018-05-06T04:43:57.443Z,94.7
2018-05-06T04:44:58.401Z,94.6
2018-05-06T04:45:59.126Z,95.1
2018-05-06T04:46:59.845Z,95.3
2018-05-06T04:48:01.016Z,95.4
2018-05-06T04:49:01.734Z,95.6
2018-05-06T04:50:02.476Z,95.0
2018-05-06T04:51:03.185Z,94.7
2018-05-06T04:52:04.208Z,94.9
2018-05-06T04:53:05.265Z,95.0
2018-05-06T04:54:05.992Z,94.7
2018-05-06T04:55:06.967Z,94.6
2018-05-06T04:56:07.700Z,94.6
2018-05-06T04:57:08.407Z,94.7
2018-05-06T04:58:09.371Z,94.7
2018-05-06T04:59:10.098Z,94.9
2018-05-06T05:00:10.813Z,94.5
2018-05-06T05:01:11.529Z,94.8
2018-05-06T05:02:12.239Z,94.5
2018-05-06T05:03:12.956Z,94.7
2018-05-06T05:04:13.668Z,94.8
2018-05-06T05:05:14.736Z,94.7
2018-05-06T05:06:15.452Z,94.6
2018-05-06T05:07:16.193Z,94.6
2018-05-06T05:08:16.908Z,94.4
2018-05-06T05:09:17.628Z,94.8
2018-05-06T05:10:18.341Z,94.7
2018-05-06T05:11:19.058Z,94.7
2018-05-06T05:12:19.790Z,94.7
2018-05-06T05:13:20.517Z,94.9
2018-05-06T05:14:21.235Z,94.7
2018-05-06T05:15:21.968Z,94.7
2018-05-06T05:16:22.674Z,94.9
2018-05-06T05:17:23.393Z,94.7
2018-05-06T05:18:24.360Z,95.0
2018-05-06T05:19:25.333Z,95.4
2018-05-06T05:20:26.048Z,95.0
2018-05-06T05:21:26.766Z,94.6
2018-05-06T05:22:27.536Z,94.2
2018-05-06T05:23:28.251Z,94.3
2018-05-06T05:24:28.968Z,94.3
2018-05-06T05:25:29.701Z,93.2
2018-05-06T05:26:30.422Z,92.7
2018-05-06T05:27:31.203Z,92.6
2018-05-06T05:28:32.004Z,92.6
2018-05-06T05:29:32.639Z,91.2
2018-05-06T05:30:33.389Z,90.3
2018-05-06T05:31:34.110Z,90.4
2018-05-06T05:32:34.821Z,90.4
2018-05-06T05:33:35.551Z,89.7
2018-05-06T05:34:36.266Z,89.1
2018-05-06T05:35:36.987Z,88.4
2018-05-06T05:36:37.699Z,87.6
2018-05-06T05:37:38.421Z,86.8
2018-05-06T05:38:39.154Z,86.3
2018-05-06T05:39:39.862Z,85.7
2018-05-06T05:40:40.635Z,85.2
2018-05-06T05:41:41.358Z,85.1
2018-05-06T05:42:42.084Z,84.8
2018-05-06T05:43:42.802Z,84.1
2018-05-06T05:44:43.548Z,83.3
2018-05-06T05:45:44.275Z,82.5
2018-05-06T05:46:44.991Z,81.4
2018-05-06T05:47:45.791Z,80.9
2018-05-06T05:48:46.447Z,81.3
2018-05-06T05:49:47.215Z,81.0
2018-05-06T05:50:47.926Z,81.5
2018-05-06T05:51:48.707Z,81.5
2018-05-06T05:52:49.389Z,81.0
2018-05-06T05:53:50.411Z,80.9
2018-05-06T05:54:51.093Z,81.1
2018-05-06T05:55:51.814Z,81.6
2018-05-06T05:56:52.544Z,81.2
2018-05-06T05:57:53.278Z,80.7
2018-05-06T05:58:53.994Z,78.6
2018-05-06T05:59:54.713Z,79.5
2018-05-06T06:00:55.538Z,81.0
2018-05-06T06:01:56.259Z,81.3
2018-05-06T06:02:56.994Z,82.2
2018-05-06T06:03:57.699Z,81.3
2018-05-06T06:04:58.431Z,80.4
2018-05-06T06:05:59.206Z,81.3
2018-05-06T06:07:00.203Z,82.0
2018-05-06T06:08:02.195Z,81.8
2018-05-06T06:09:03.243Z,82.3
2018-05-06T06:10:03.955Z,81.8
2018-05-06T06:11:04.772Z,83.1
2018-05-06T06:12:05.497Z,83.0
2018-05-06T06:13:06.239Z,83.4
2018-05-06T06:14:06.950Z,84.4
2018-05-06T06:15:07.921Z,84.6
2018-05-06T06:16:08.947Z,84.4
2018-05-06T06:17:09.932Z,84.6
2018-05-06T06:18:10.646Z,85.0
2018-05-06T06:19:11.374Z,84.7
2018-05-06T06:20:12.095Z,84.4
2018-05-06T06:21:13.109Z,84.6
2018-05-06T06:22:13.828Z,84.9
2018-05-06T06:23:14.800Z,85.4
2018-05-06T06:24:15.525Z,85.5
2018-05-06T06:25:16.283Z,84.8
2018-05-06T06:26:17.011Z,85.0
2018-05-06T06:27:17.783Z,84.2
2018-05-06T06:28:18.505Z,82.9
2018-05-06T06:29:19.224Z,82.8
2018-05-06T06:30:19.949Z,81.4
2018-05-06T06:31:20.672Z,82.6
2018-05-06T06:32:21.453Z,82.0
2018-05-06T06:33:22.176Z,80.6
2018-05-06T06:34:22.905Z,80.5
2018-05-06T06:35:23.638Z,81.3
2018-05-06T06:36:24.370Z,81.1
2018-05-06T06:37:25.150Z,81.3
2018-05-06T06:38:25.932Z,79.9
2018-05-06T06:39:26.592Z,80.4
2018-05-06T06:40:27.319Z,81.4
2018-05-06T06:41:28.062Z,81.4
2018-05-06T06:42:28.784Z,81.2
2018-05-06T06:43:29.515Z,80.5
2018-05-06T06:44:30.250Z,80.3
2018-05-06T06:45:30.975Z,80.8
2018-05-06T06:46:31.691Z,81.5
2018-05-06T06:47:32.422Z,81.5
2018-05-06T06:48:33.400Z,81.1
2018-05-06T06:49:34.128Z,81.5
2018-05-06T06:50:34.853Z,81.1
2018-05-06T06:51:35.830Z,79.9
2018-05-06T06:52:36.558Z,77.7
2018-05-06T06:53:37.332Z,76.5
2018-05-06T06:54:38.308Z,76.3
2018-05-06T06:55:39.327Z,76.4
2018-05-06T06:56:40.014Z,76.5
2018-05-06T06:57:40.738Z,77.0
2018-05-06T06:58:41.467Z,71.7
2018-05-06T06:59:42.183Z,71.7
2018-05-06T07:00:42.902Z,72.2
2018-05-06T07:01:43.875Z,76.1
2018-05-06T07:02:44.598Z,74.9
2018-05-06T07:03:45.334Z,74.3
2018-05-06T07:04:46.068Z,74.6
2018-05-06T07:05:46.871Z,75.2
2018-05-06T07:06:47.515Z,74.2
2018-05-06T07:07:48.496Z,73.8
2018-05-06T07:08:49.205Z,73.8
2018-05-06T07:09:49.920Z,72.2
2018-05-06T07:10:50.643Z,71.3
2018-05-06T07:11:51.367Z,69.6
2018-05-06T07:12:52.088Z,68.8
2018-05-06T07:13:52.810Z,67.6
2018-05-06T07:14:53.776Z,66.9
2018-05-06T07:15:54.502Z,65.7
2018-05-06T07:16:55.227Z,64.9
2018-05-06T07:17:56.199Z,64.1
2018-05-06T07:18:56.918Z,62.6
2018-05-06T07:19:57.643Z,62.7
2018-05-06T07:20:58.422Z,61.6
2018-05-06T07:21:59.145Z,60.8
2018-05-06T07:22:59.872Z,59.6
2018-05-06T07:24:00.852Z,59.8
2018-05-06T07:25:01.579Z,59.3
2018-05-06T07:26:02.307Z,58.6
2018-05-06T07:27:03.046Z,59.4
2018-05-06T07:28:03.764Z,60.0
2018-05-06T07:29:04.482Z,61.0
2018-05-06T07:30:05.215Z,60.8
2018-05-06T07:31:05.933Z,61.3
2018-05-06T07:32:06.666Z,60.7
2018-05-06T07:33:07.398Z,61.2
2018-05-06T07:34:08.138Z,59.2
2018-05-06T07:35:08.864Z,57.3
2018-05-06T07:36:09.619Z,57.5
2018-05-06T07:37:10.343Z,57.1
2018-05-06T07:38:11.318Z,56.1
2018-05-06T07:39:12.289Z,54.4
2018-05-06T07:40:13.015Z,53.4
2018-05-06T07:41:13.741Z,53.6
2018-05-06T07:42:14.470Z,53.1
2018-05-06T07:43:15.211Z,53.6
2018-05-06T07:44:15.953Z,53.5
2018-05-06T07:45:16.685Z,53.4
2018-05-06T07:46:17.410Z,53.4
2018-05-06T07:47:18.144Z,52.3
2018-05-06T07:48:18.881Z,51.4
2018-05-06T07:49:19.863Z,51.2
2018-05-06T07:50:20.700Z,51.2
2018-05-06T07:51:21.420Z,51.2
2018-05-06T07:52:22.154Z,50.5
2018-05-06T07:53:22.874Z,50.6
2018-05-06T07:54:23.622Z,49.4
2018-05-06T07:55:24.362Z,50.2
2018-05-06T07:56:25.108Z,50.5
2018-05-06T07:57:25.834Z,50.4
2018-05-06T07:58:26.570Z,50.7
2018-05-06T07:59:27.550Z,50.3
2018-05-06T08:00:28.682Z,50.4
2018-05-06T08:01:29.417Z,49.9
2018-05-06T08:02:30.165Z,49.5
2018-05-06T08:03:30.901Z,50.2
2018-05-06T08:04:31.630Z,50.7
2018-05-06T08:05:32.617Z,50.2
2018-05-06T08:06:33.350Z,49.6
2018-05-06T08:07:34.088Z,49.4
2018-05-06T08:08:34.829Z,49.9
2018-05-06T08:09:35.562Z,49.5
2018-05-06T08:10:36.303Z,49.8
2018-05-06T08:11:37.143Z,50.4
2018-05-06T08:12:37.876Z,49.2
2018-05-06T08:13:38.610Z,49.9
2018-05-06T08:14:39.342Z,50.4
2018-05-06T08:15:40.082Z,50.6
2018-05-06T08:16:40.850Z,50.4
2018-05-06T08:17:41.905Z,50.2
2018-05-06T08:18:42.889Z,49.6
2018-05-06T08:19:43.625Z,48.7
2018-05-06T08:20:44.351Z,48.6
2018-05-06T08:21:45.422Z,48.5
2018-05-06T08:22:46.172Z,49.0
2018-05-06T08:23:46.921Z,49.0
2018-05-06T08:24:47.648Z,49.4
2018-05-06T08:25:48.378Z,49.0
2018-05-06T08:26:49.133Z,47.4
2018-05-06T08:27:49.969Z,48.3
2018-05-06T08:28:50.691Z,48.4
2018-05-06T08:29:51.425Z,48.6
2018-05-06T08:30:52.156Z,48.1
2018-05-06T08:31:52.894Z,48.3
2018-05-06T08:32:53.628Z,48.1
2018-05-06T08:33:54.370Z,48.6
2018-05-06T08:34:55.113Z,48.3
2018-05-06T08:35:55.852Z,46.8
2018-05-06T08:36:56.828Z,46.6
2018-05-06T08:37:57.570Z,46.3
2018-05-06T08:38:58.349Z,46.1
2018-05-06T08:39:59.098Z,44.9
2018-05-06T08:40:59.822Z,44.8
2018-05-06T08:42:00.563Z,45.5
2018-05-06T08:43:01.288Z,45.8
2018-05-06T08:44:02.027Z,45.5
2018-05-06T08:45:02.748Z,45.4
2018-05-06T08:46:03.493Z,46.1
2018-05-06T08:47:04.239Z,44.8
2018-05-06T08:48:04.961Z,45.7
2018-05-06T08:49:05.702Z,46.3
2018-05-06T08:50:06.438Z,45.0
2018-05-06T08:51:07.178Z,44.0
2018-05-06T08:52:08.154Z,43.7
2018-05-06T08:53:08.895Z,43.9
2018-05-06T08:54:09.877Z,44.7
2018-05-06T08:55:10.613Z,43.4
2018-05-06T08:56:11.346Z,42.7
2018-05-06T08:57:12.094Z,42.9
2018-05-06T08:58:13.068Z,43.0
2018-05-06T08:59:13.903Z,42.7
2018-05-06T09:00:14.632Z,43.0
2018-05-06T09:01:15.360Z,43.0
2018-05-06T09:02:16.099Z,42.6
2018-05-06T09:03:16.842Z,41.7
2018-05-06T09:04:17.580Z,40.5
2018-05-06T09:05:18.310Z,40.6
2018-05-06T09:06:19.046Z,40.8
2018-05-06T09:07:19.775Z,41.1
2018-05-06T09:08:20.501Z,41.4
2018-05-06T09:09:21.233Z,40.6
2018-05-06T09:10:21.962Z,40.7
2018-05-06T09:11:22.688Z,40.5
2018-05-06T09:12:23.433Z,40.0
2018-05-06T09:13:24.179Z,40.1
2018-05-06T09:14:24.953Z,39.6
2018-05-06T09:15:25.955Z,40.1
2018-05-06T09:16:26.686Z,39.5
2018-05-06T09:17:27.419Z,39.1
2018-05-06T09:18:28.410Z,39.2
2018-05-06T09:19:29.243Z,39.1
2018-05-06T09:20:29.975Z,39.4
2018-05-06T09:21:30.712Z,38.8
2018-05-06T09:22:31.443Z,39.3
2018-05-06T09:23:32.183Z,39.2
2018-05-06T09:24:32.979Z,39.3
2018-05-06T09:25:33.763Z,38.8
2018-05-06T09:26:34.441Z,38.8
2018-05-06T09:27:35.181Z,39.0
2018-05-06T09:28:36.164Z,40.1
2018-05-06T09:29:36.999Z,39.6
2018-05-06T09:30:37.758Z,39.0
2018-05-06T09:31:38.477Z,39.0
2018-05-06T09:32:39.227Z,39.2
2018-05-06T09:33:39.964Z,39.0
2018-05-06T09:34:40.756Z,38.9
2018-05-06T09:35:41.526Z,38.7
2018-05-06T09:36:42.238Z,38.9
2018-05-06T09:37:42.973Z,38.6
2018-05-06T09:38:43.696Z,38.9
2018-05-06T09:39:44.423Z,39.0
2018-05-06T09:40:45.166Z,38.6
2018-05-06T09:41:45.902Z,39.1
2018-05-06T09:42:46.651Z,39.2
2018-05-06T09:43:47.636Z,39.9
2018-05-06T09:44:48.369Z,38.2
2018-05-06T09:45:49.550Z,38.9
2018-05-06T09:46:50.273Z,39.2
2018-05-06T09:47:51.309Z,39.2
2018-05-06T09:48:51.975Z,39.5
2018-05-06T09:49:52.705Z,39.2
2018-05-06T09:50:53.694Z,39.4
2018-05-06T09:51:54.422Z,38.9
2018-05-06T09:52:55.308Z,39.0
2018-05-06T09:53:56.065Z,38.8
2018-05-06T09:54:56.798Z,39.1
2018-05-06T09:55:57.534Z,38.2
2018-05-06T09:56:58.273Z,38.0
2018-05-06T09:57:59.100Z,38.6
2018-05-06T09:58:59.830Z,38.7
2018-05-06T10:00:00.571Z,38.2
2018-05-06T10:01:01.305Z,38.0
2018-05-06T10:02:02.036Z,37.9
2018-05-06T10:03:03.379Z,38.2
2018-05-06T10:04:04.159Z,38.0
2018-05-06T10:05:05.131Z,38.6
2018-05-06T10:06:05.851Z,38.0
2018-05-06T10:07:06.617Z,37.9
2018-05-06T10:08:07.330Z,38.1
2018-05-06T10:09:08.339Z,37.6
2018-05-06T10:10:09.059Z,37.3
2018-05-06T10:11:09.784Z,36.1
2018-05-06T10:12:10.766Z,36.2
2018-05-06T10:13:11.496Z,36.7
2018-05-06T10:14:12.239Z,35.2
2018-05-06T10:15:13.065Z,35.1
2018-05-06T10:16:13.796Z,35.1
2018-05-06T10:17:14.540Z,34.9
2018-05-06T10:18:15.278Z,35.3
2018-05-06T10:19:16.014Z,36.6
2018-05-06T10:20:17.174Z,35.1
2018-05-06T10:21:17.922Z,34.3
2018-05-06T10:22:18.692Z,34.6
2018-05-06T10:23:19.439Z,34.1
2018-05-06T10:24:20.600Z,34.1
2018-05-06T10:25:21.336Z,34.1
2018-05-06T10:26:22.076Z,33.1
2018-05-06T10:27:22.799Z,33.2
2018-05-06T10:28:23.537Z,34.0
2018-05-06T10:29:24.259Z,34.7
2018-05-06T10:30:25.115Z,34.1
2018-05-06T10:31:26.639Z,32.7
2018-05-06T10:32:27.376Z,33.3
2018-05-06T10:33:28.124Z,32.7
2018-05-06T10:34:29.023Z,33.1
2018-05-06T10:35:30.522Z,32.7
2018-05-06T10:36:31.317Z,32.8
2018-05-06T10:37:32.048Z,32.8
2018-05-06T10:38:33.206Z,33.2
2018-05-06T10:39:33.860Z,33.9
2018-05-06T10:40:34.650Z,33.9
2018-05-06T10:41:35.395Z,34.3
2018-05-06T10:42:36.180Z,32.3
2018-05-06T10:43:37.061Z,31.8
2018-05-06T10:44:37.770Z,32.0
2018-05-06T10:45:38.651Z,32.7
2018-05-06T10:46:39.394Z,32.3
2018-05-06T10:47:40.170Z,32.4
2018-05-06T10:48:41.248Z,32.6
2018-05-06T10:49:42.140Z,32.7
2018-05-06T10:50:43.250Z,34.5
2018-05-06T10:51:44.452Z,34.2
2018-05-06T10:52:45.219Z,33.4
2018-05-06T10:53:46.349Z,32.8
2018-05-06T10:54:47.083Z,32.9
2018-05-06T10:55:47.806Z,33.2
2018-05-06T10:56:48.542Z,32.7
2018-05-06T10:57:49.325Z,31.6
2018-05-06T10:58:50.143Z,32.5
2018-05-06T10:59:50.855Z,32.2
2018-05-06T11:00:51.648Z,31.8
2018-05-06T11:01:52.370Z,31.9
2018-05-06T11:02:53.459Z,31.1
2018-05-06T11:03:54.199Z,31.5
2018-05-06T11:04:54.924Z,31.8
2018-05-06T11:05:55.758Z,31.5
2018-05-06T11:06:56.488Z,31.4
2018-05-06T11:07:57.238Z,30.3
2018-05-06T11:08:57.973Z,31.8
2018-05-06T11:09:59.003Z,31.5
2018-05-06T11:10:59.999Z,31.5
2018-05-06T11:12:00.985Z,31.8
2018-05-06T11:13:01.720Z,32.1
2018-05-06T11:14:02.477Z,32.8
2018-05-06T11:15:03.484Z,33.4
2018-05-06T11:16:04.217Z,32.2
2018-05-06T11:17:04.978Z,31.1
2018-05-06T11:18:05.749Z,30.7
2018-05-06T11:19:06.476Z,30.3
2018-05-06T11:20:07.214Z,31.7
2018-05-06T11:21:08.004Z,31.5
2018-05-06T11:22:08.768Z,30.1
2018-05-06T11:23:09.902Z,30.0
2018-05-06T11:24:11.041Z,30.1
2018-05-06T11:25:12.029Z,31.3
2018-05-06T11:26:13.071Z,31.9
2018-05-06T11:27:14.574Z,31.8
2018-05-06T11:28:15.399Z,31.4
2018-05-06T11:29:16.586Z,30.6
2018-05-06T11:30:17.326Z,31.8
2018-05-06T11:31:18.495Z,31.9
2018-05-06T11:32:20.420Z,31.0
2018-05-06T11:33:21.202Z,31.4
2018-05-06T11:34:21.924Z,30.9
2018-05-06T11:35:22.678Z,31.1
2018-05-06T11:36:23.415Z,31.7
2018-05-06T11:37:24.175Z,31.6
2018-05-06T11:38:24.909Z,31.5
2018-05-06T11:39:25.866Z,30.5
2018-05-06T11:40:26.663Z,30.5
2018-05-06T11:41:28.278Z,29.6
2018-05-06T11:42:29.169Z,30.2
2018-05-06T11:43:29.910Z,30.2
2018-05-06T11:44:30.809Z,28.8
2018-05-06T11:45:31.561Z,28.6
2018-05-06T11:46:32.303Z,29.2
2018-05-06T11:47:33.044Z,29.3
2018-05-06T11:48:33.775Z,29.3
2018-05-06T11:49:34.516Z,28.6
2018-05-06T11:50:35.243Z,28.4
2018-05-06T11:51:35.993Z,29.4
2018-05-06T11:52:36.767Z,29.9
2018-05-06T11:53:37.507Z,30.5
2018-05-06T11:54:38.490Z,30.4
2018-05-06T11:55:39.478Z,30.6
2018-05-06T11:56:40.216Z,30.6
2018-05-06T11:57:40.995Z,29.7
2018-05-06T11:58:41.725Z,29.1
2018-05-06T11:59:42.472Z,29.0
2018-05-06T12:00:43.202Z,30.2
2018-05-06T12:01:43.958Z,30.4
2018-05-06T12:02:44.747Z,29.9
2018-05-06T12:03:45.485Z,29.9
2018-05-06T12:04:46.218Z,30.0
2018-05-06T12:05:46.955Z,30.3
2018-05-06T12:06:47.715Z,29.7
2018-05-06T12:07:48.471Z,30.3
2018-05-06T12:08:49.296Z,31.6
2018-05-06T12:09:50.035Z,31.6
2018-05-06T12:10:50.767Z,31.4
2018-05-06T12:11:51.504Z,31.5
2018-05-06T12:12:52.600Z,30.2
2018-05-06T12:13:53.328Z,31.1
2018-05-06T12:14:54.090Z,30.4
2018-05-06T12:15:54.840Z,30.3
2018-05-06T12:16:55.579Z,28.6
2018-05-06T12:17:56.361Z,28.1
2018-05-06T12:18:57.131Z,28.5
2018-05-06T12:19:57.855Z,29.7
2018-05-06T12:20:58.607Z,29.8
2018-05-06T12:21:59.357Z,30.1
2018-05-06T12:23:00.080Z,30.8
2018-05-06T12:24:01.717Z,30.5
2018-05-06T12:25:02.861Z,30.1
2018-05-06T12:26:04.102Z,29.6
2018-05-06T12:27:04.830Z,30.1
2018-05-06T12:28:05.565Z,30.2
2018-05-06T12:29:06.310Z,30.0
2018-05-06T12:30:07.337Z,30.6
2018-05-06T12:31:08.073Z,30.7
2018-05-06T12:32:08.803Z,30.5
2018-05-06T12:33:09.799Z,31.2
2018-05-06T12:34:10.534Z,30.2
2018-05-06T12:35:11.265Z,31.3
2018-05-06T12:36:12.003Z,30.6
2018-05-06T12:37:12.731Z,30.1
2018-05-06T12:38:13.465Z,30.2
2018-05-06T12:39:14.207Z,30.6
2018-05-06T12:40:15.303Z,30.0
2018-05-06T12:41:16.145Z,30.2
2018-05-06T12:42:17.138Z,30.2
2018-05-06T12:43:17.939Z,30.7
2018-05-06T12:44:18.603Z,31.0
2018-05-06T12:45:19.334Z,32.0
2018-05-06T12:46:20.733Z,31.9
2018-05-06T12:47:21.952Z,31.6
2018-05-06T12:48:23.156Z,31.3
2018-05-06T12:49:23.967Z,30.5
2018-05-06T12:50:24.957Z,31.8
2018-05-06T12:51:26.055Z,31.3
2018-05-06T12:52:27.042Z,31.4
2018-05-06T12:53:27.922Z,30.8
2018-05-06T12:54:28.656Z,31.2
2018-05-06T12:55:29.446Z,31.4
2018-05-06T12:56:30.293Z,30.7
2018-05-06T12:57:31.058Z,31.6
2018-05-06T12:58:31.792Z,30.7
2018-05-06T12:59:32.535Z,30.8
2018-05-06T13:00:33.264Z,30.4
2018-05-06T13:01:34.005Z,30.5
2018-05-06T13:02:35.513Z,30.6
2018-05-06T13:03:36.570Z,30.0
2018-05-06T13:04:37.307Z,30.5
2018-05-06T13:05:38.607Z,30.6
2018-05-06T13:06:40.833Z,30.8
2018-05-06T13:07:42.338Z,30.8
2018-05-06T13:08:43.454Z,30.2
2018-05-06T13:09:45.492Z,31.2
2018-05-06T13:10:47.441Z,31.1
2018-05-06T13:11:50.030Z,31.5
2018-05-06T13:12:52.221Z,32.5
2018-05-06T13:13:53.925Z,31.5
2018-05-06T13:14:54.900Z,31.5
2018-05-06T13:15:56.609Z,30.0
2018-05-06T13:16:58.526Z,30.8
2018-05-06T13:17:59.400Z,31.4
2018-05-06T13:19:00.270Z,30.9
2018-05-06T13:20:01.473Z,30.7
2018-05-06T13:21:02.288Z,30.8
2018-05-06T13:22:03.304Z,31.2
2018-05-06T13:23:05.142Z,31.7
2018-05-06T13:24:07.431Z,30.4
2018-05-06T13:25:09.145Z,30.9
2018-05-06T13:26:10.989Z,31.4
2018-05-06T13:27:12.787Z,31.1
2018-05-06T13:28:13.890Z,31.5
2018-05-06T13:29:15.893Z,32.7